createdAt,value
2019-01-25T00:02:04.326Z,18.20
2019-01-25T00:04:33.558Z,18.20
2019-01-25T00:07:02.799Z,18.20
2019-01-25T00:09:32.318Z,18.20
2019-01-25T00:12:01.651Z,18.10
2019-01-25T00:14:30.880Z,18.10
2019-01-25T00:17:00.083Z,18.10
2019-01-25T00:19:29.331Z,18.10
2019-01-25T00:21:58.574Z,18.10
2019-01-25T00:24:27.795Z,18.10
2019-01-25T00:26:57.059Z,18.10
2019-01-25T00:29:26.322Z,18.10
2019-01-25T00:31:55.524Z,18.10
2019-01-25T00:34:24.770Z,18.10
2019-01-25T00:36:54.008Z,18.10
2019-01-25T00:39:23.564Z,18.10
2019-01-25T00:41:52.918Z,18.10
2019-01-25T00:44:22.131Z,18.10
2019-01-25T00:46:51.422Z,18.10
2019-01-25T00:49:21.299Z,18.10
2019-01-25T00:51:50.519Z,18.10
2019-01-25T00:54:19.779Z,18.10
2019-01-25T00:56:49.106Z,18.10
2019-01-25T00:59:18.798Z,18.10
2019-01-25T01:01:48.054Z,18.10
2019-01-25T01:04:17.323Z,18.10
2019-01-25T01:06:46.535Z,18.00
2019-01-25T01:09:15.759Z,18.10
2019-01-25T01:11:45.066Z,18.00
2019-01-25T01:14:14.272Z,18.00
2019-01-25T01:16:43.534Z,18.00
2019-01-25T01:19:12.778Z,18.00
2019-01-25T01:21:42.064Z,18.00
2019-01-25T01:24:11.292Z,18.00
2019-01-25T01:26:40.487Z,18.00
2019-01-25T01:29:09.799Z,18.00
2019-01-25T01:31:39.087Z,18.00
2019-01-25T01:34:08.270Z,18.00
2019-01-25T01:36:37.519Z,18.00
2019-01-25T01:39:07.763Z,18.00
2019-01-25T01:41:36.995Z,17.90
2019-01-25T01:44:06.239Z,17.90
2019-01-25T01:46:35.411Z,17.90
2019-01-25T01:49:04.625Z,18.00
2019-01-25T01:51:33.853Z,18.00
2019-01-25T01:54:03.058Z,18.00
2019-01-25T01:56:32.350Z,18.00
2019-01-25T01:59:01.575Z,18.00
2019-01-25T02:01:30.887Z,18.00
2019-01-25T02:04:00.417Z,18.00
2019-01-25T02:06:29.631Z,18.00
2019-01-25T02:08:58.819Z,18.00
2019-01-25T02:11:28.038Z,18.00
2019-01-25T02:13:57.263Z,18.00
2019-01-25T02:16:26.513Z,18.00
2019-01-25T02:18:55.724Z,18.00
2019-01-25T02:21:25.252Z,18.00
2019-01-25T02:23:54.919Z,18.00
2019-01-25T02:26:24.098Z,18.00
2019-01-25T02:28:53.340Z,18.00
2019-01-25T02:31:22.594Z,18.00
2019-01-25T02:33:51.807Z,18.00
2019-01-25T02:36:21.051Z,18.00
2019-01-25T02:38:50.274Z,18.00
2019-01-25T02:41:19.456Z,18.00
2019-01-25T02:43:48.707Z,17.90
2019-01-25T02:46:17.913Z,18.00
2019-01-25T02:48:47.177Z,17.90
2019-01-25T02:51:16.374Z,17.90
2019-01-25T02:53:45.566Z,18.00
2019-01-25T02:56:14.823Z,17.90
2019-01-25T02:58:44.075Z,17.90
2019-01-25T03:01:13.264Z,17.90
2019-01-25T03:03:42.631Z,17.90
2019-01-25T03:06:11.819Z,17.90
2019-01-25T03:08:41.052Z,17.90
2019-01-25T03:11:10.307Z,17.90
2019-01-25T03:13:39.495Z,17.90
2019-01-25T03:16:08.753Z,17.90
2019-01-25T03:18:37.949Z,17.90
2019-01-25T03:21:07.131Z,17.90
2019-01-25T03:23:36.388Z,17.90
2019-01-25T03:26:05.870Z,17.90
2019-01-25T03:28:35.123Z,17.90
2019-01-25T03:31:04.344Z,17.90
2019-01-25T03:33:33.552Z,17.90
2019-01-25T03:36:02.803Z,17.80
2019-01-25T03:38:32.011Z,17.80
2019-01-25T03:41:01.202Z,17.80
2019-01-25T03:43:30.453Z,17.90
2019-01-25T03:45:59.636Z,17.80
2019-01-25T03:48:28.872Z,17.80
2019-01-25T03:50:58.100Z,17.80
2019-01-25T03:53:27.311Z,17.80
2019-01-25T03:55:56.838Z,17.80
2019-01-25T03:58:26.107Z,17.80
2019-01-25T04:00:55.323Z,17.80
2019-01-25T04:03:24.541Z,17.80
2019-01-25T04:05:53.727Z,17.80
2019-01-25T04:08:22.934Z,17.80
2019-01-25T04:10:52.159Z,17.80
2019-01-25T04:13:21.377Z,17.80
2019-01-25T04:15:50.595Z,17.80
2019-01-25T04:18:19.838Z,17.80
2019-01-25T04:20:49.035Z,17.80
2019-01-25T04:23:18.258Z,17.70
2019-01-25T04:25:47.481Z,17.70
2019-01-25T04:28:16.666Z,17.70
2019-01-25T04:30:45.926Z,17.70
2019-01-25T04:33:15.103Z,17.70
2019-01-25T04:35:44.315Z,17.70
2019-01-25T04:38:13.543Z,17.70
2019-01-25T04:40:42.719Z,17.70
2019-01-25T04:43:11.988Z,17.70
2019-01-25T04:45:41.208Z,17.70
2019-01-25T04:48:14.326Z,17.70
2019-01-25T04:50:43.608Z,17.70
2019-01-25T04:53:12.804Z,17.70
2019-01-25T04:55:42.105Z,17.70
2019-01-25T04:58:18.840Z,17.70
2019-01-25T05:00:48.139Z,17.60
2019-01-25T05:03:17.841Z,17.60
2019-01-25T05:05:46.998Z,17.60
2019-01-25T05:08:17.898Z,17.50
2019-01-25T05:10:47.090Z,17.60
2019-01-25T05:13:16.301Z,17.50
2019-01-25T05:15:45.520Z,17.60
2019-01-25T05:18:15.024Z,17.50
2019-01-25T05:20:44.256Z,17.50
2019-01-25T05:23:13.528Z,17.50
2019-01-25T05:25:43.039Z,17.50
2019-01-25T05:28:19.515Z,17.40
2019-01-25T05:31:02.111Z,17.50
2019-01-25T05:33:32.823Z,17.50
2019-01-25T05:36:10.910Z,17.50
2019-01-25T05:38:40.118Z,17.50
2019-01-25T05:41:09.537Z,17.50
2019-01-25T05:43:40.907Z,17.50
2019-01-25T05:46:10.142Z,17.50
2019-01-25T05:48:39.316Z,17.60
2019-01-25T05:51:08.546Z,17.60
2019-01-25T05:53:37.726Z,17.60
2019-01-25T05:56:07.276Z,17.60
2019-01-25T05:58:36.544Z,17.70
2019-01-25T06:01:07.654Z,17.70
2019-01-25T06:03:37.028Z,17.70
2019-01-25T06:06:07.101Z,17.70
2019-01-25T06:08:43.604Z,17.70
2019-01-25T06:11:11.922Z,17.70
2019-01-25T06:13:45.197Z,17.70
2019-01-25T06:16:14.556Z,17.70
2019-01-25T06:18:43.678Z,17.80
2019-01-25T06:21:12.890Z,17.80
2019-01-25T06:23:42.094Z,17.80
2019-01-25T06:26:12.504Z,17.80
2019-01-25T06:28:41.697Z,17.80
2019-01-25T06:31:10.929Z,17.80
2019-01-25T06:33:40.101Z,17.80
2019-01-25T06:36:09.301Z,17.90
2019-01-25T06:38:38.506Z,17.90
2019-01-25T06:41:08.429Z,17.90
2019-01-25T06:43:37.650Z,17.90
2019-01-25T06:46:07.045Z,17.90
2019-01-25T06:48:36.242Z,17.90
2019-01-25T06:51:06.231Z,17.90
2019-01-25T06:53:35.446Z,17.90
2019-01-25T06:56:04.670Z,17.90
2019-01-25T06:58:55.824Z,17.90
2019-01-25T07:01:36.369Z,17.90
2019-01-25T07:04:05.577Z,17.90
2019-01-25T07:06:34.722Z,17.90
2019-01-25T07:09:06.401Z,17.90
2019-01-25T07:11:41.900Z,17.90
2019-01-25T07:14:06.486Z,17.90
2019-01-25T07:16:35.661Z,17.90
2019-01-25T07:19:04.801Z,17.80
2019-01-25T07:21:33.940Z,17.80
2019-01-25T07:24:03.120Z,17.80
2019-01-25T07:26:32.416Z,17.80
2019-01-25T07:29:01.726Z,17.80
2019-01-25T07:31:30.920Z,17.80
2019-01-25T07:34:00.152Z,17.80
2019-01-25T07:36:29.303Z,17.80
2019-01-25T07:38:58.502Z,17.90
2019-01-25T07:41:27.745Z,17.90
2019-01-25T07:43:56.942Z,17.90
2019-01-25T07:46:26.121Z,17.90
2019-01-25T07:48:55.309Z,17.90
2019-01-25T07:51:24.610Z,17.90
2019-01-25T07:53:53.856Z,17.90
2019-01-25T07:56:23.096Z,17.90
2019-01-25T07:58:52.332Z,17.90
2019-01-25T08:01:21.664Z,18.00
2019-01-25T08:03:50.830Z,18.00
2019-01-25T08:06:20.065Z,18.00
2019-01-25T08:08:49.290Z,18.00
2019-01-25T08:11:18.467Z,18.00
2019-01-25T08:13:47.705Z,18.00
2019-01-25T08:16:17.023Z,18.00
2019-01-25T08:18:46.498Z,18.00
2019-01-25T08:21:15.706Z,18.00
2019-01-25T08:23:44.944Z,18.00
2019-01-25T08:26:15.586Z,18.00
2019-01-25T08:28:44.961Z,18.00
2019-01-25T08:31:14.192Z,18.00
2019-01-25T08:33:43.402Z,18.00
2019-01-25T08:36:12.555Z,18.00
2019-01-25T08:38:41.750Z,18.00
2019-01-25T08:41:10.966Z,18.00
2019-01-25T08:43:40.146Z,17.90
2019-01-25T08:46:09.390Z,17.90
2019-01-25T08:48:38.628Z,17.90
2019-01-25T08:51:07.842Z,17.90
2019-01-25T08:53:37.063Z,17.90
2019-01-25T08:56:06.950Z,17.90
2019-01-25T08:58:36.502Z,17.90
2019-01-25T09:01:06.094Z,18.00
2019-01-25T09:03:35.295Z,18.00
2019-01-25T09:06:04.533Z,17.90
2019-01-25T09:08:33.716Z,18.00
2019-01-25T09:11:02.871Z,18.00
2019-01-25T09:13:32.128Z,18.00
2019-01-25T09:16:01.315Z,18.00
2019-01-25T09:18:30.486Z,18.00
2019-01-25T09:20:59.750Z,18.00
2019-01-25T09:23:28.914Z,18.00
2019-01-25T09:26:01.005Z,18.00
2019-01-25T09:28:28.987Z,18.00
2019-01-25T09:30:58.167Z,18.00
2019-01-25T09:33:27.286Z,18.00
2019-01-25T09:35:56.467Z,18.00
2019-01-25T09:38:25.673Z,18.10
2019-01-25T09:40:54.881Z,18.10
2019-01-25T09:43:24.414Z,18.10
2019-01-25T09:45:53.658Z,18.10
2019-01-25T09:48:22.882Z,18.00
2019-01-25T09:50:52.817Z,18.10
2019-01-25T09:53:22.442Z,18.00
2019-01-25T09:55:51.635Z,18.10
2019-01-25T09:58:21.181Z,18.00
2019-01-25T10:00:57.250Z,18.00
2019-01-25T10:03:26.494Z,18.00
2019-01-25T10:05:55.750Z,18.00
2019-01-25T10:08:25.025Z,18.00
2019-01-25T10:10:54.200Z,18.00
2019-01-25T10:13:23.417Z,18.00
2019-01-25T10:15:52.599Z,18.00
2019-01-25T10:18:24.877Z,18.00
2019-01-25T10:20:52.924Z,18.00
2019-01-25T10:23:22.136Z,18.00
2019-01-25T10:25:51.326Z,18.00
2019-01-25T10:28:20.513Z,18.10
2019-01-25T10:30:50.818Z,18.10
2019-01-25T10:33:20.030Z,18.10
2019-01-25T10:35:49.294Z,18.10
2019-01-25T10:38:18.503Z,18.10
2019-01-25T10:40:47.707Z,18.10
2019-01-25T10:43:16.895Z,18.10
2019-01-25T10:45:46.059Z,18.10
2019-01-25T10:48:15.257Z,18.10
2019-01-25T10:50:44.462Z,18.10
2019-01-25T10:53:13.655Z,18.10
2019-01-25T10:55:42.859Z,18.10
2019-01-25T10:58:11.992Z,18.10
2019-01-25T11:00:41.245Z,18.10
2019-01-25T11:03:10.455Z,18.10
2019-01-25T11:05:39.722Z,18.10
2019-01-25T11:08:08.896Z,18.10
2019-01-25T11:10:38.062Z,18.10
2019-01-25T11:13:07.284Z,18.10
2019-01-25T11:15:36.457Z,18.10
2019-01-25T11:18:05.878Z,18.10
2019-01-25T11:20:35.126Z,18.10
2019-01-25T11:23:04.316Z,18.10
2019-01-25T11:25:35.912Z,18.10
2019-01-25T11:28:05.288Z,18.10
2019-01-25T11:30:34.494Z,18.10
2019-01-25T11:33:03.666Z,18.10
2019-01-25T11:35:32.853Z,18.10
2019-01-25T11:38:02.057Z,18.10
2019-01-25T11:40:34.027Z,18.10
2019-01-25T11:43:08.404Z,18.30
2019-01-25T11:45:34.114Z,18.40
2019-01-25T11:48:03.291Z,18.40
2019-01-25T11:50:33.930Z,18.40
2019-01-25T11:53:03.126Z,18.40
2019-01-25T11:55:32.342Z,18.40
2019-01-25T11:58:01.795Z,18.40
2019-01-25T12:00:31.410Z,18.50
2019-01-25T12:03:00.605Z,18.50
2019-01-25T12:05:29.759Z,18.50
2019-01-25T12:07:59.015Z,18.50
2019-01-25T12:10:29.558Z,18.60
2019-01-25T12:12:58.745Z,18.60
2019-01-25T12:15:27.875Z,18.60
2019-01-25T12:17:57.441Z,18.60
2019-01-25T12:20:28.557Z,18.60
2019-01-25T12:22:57.680Z,18.70
2019-01-25T12:25:26.889Z,18.70
2019-01-25T12:27:56.072Z,18.70
2019-01-25T12:30:37.625Z,18.70
2019-01-25T12:33:04.919Z,18.70
2019-01-25T12:35:36.596Z,18.70
2019-01-25T12:38:05.876Z,18.70
2019-01-25T12:40:35.440Z,18.70
2019-01-25T12:43:04.697Z,18.70
2019-01-25T12:45:33.924Z,18.70
2019-01-25T12:48:03.082Z,18.60
2019-01-25T12:50:49.149Z,18.60
2019-01-25T12:53:18.766Z,18.60
2019-01-25T12:55:48.346Z,18.60
2019-01-25T12:58:17.537Z,18.60
2019-01-25T13:00:46.730Z,18.60
2019-01-25T13:03:15.986Z,18.60
2019-01-25T13:05:45.126Z,18.60
2019-01-25T13:08:14.338Z,18.60
2019-01-25T13:10:43.599Z,18.60
2019-01-25T13:13:12.746Z,18.60
2019-01-25T13:15:42.001Z,18.60
2019-01-25T13:18:11.187Z,18.70
2019-01-25T13:20:40.354Z,18.70
2019-01-25T13:23:09.693Z,18.70
2019-01-25T13:25:38.865Z,18.70
2019-01-25T13:28:08.073Z,18.70
2019-01-25T13:30:37.306Z,18.70
2019-01-25T13:33:06.488Z,18.80
2019-01-25T13:35:35.753Z,18.80
2019-01-25T13:38:04.981Z,18.80
2019-01-25T13:40:34.164Z,18.80
2019-01-25T13:43:03.408Z,18.80
2019-01-25T13:45:32.577Z,18.90
2019-01-25T13:48:01.736Z,18.90
2019-01-25T13:50:30.985Z,18.90
2019-01-25T13:53:00.191Z,18.90
2019-01-25T13:55:29.391Z,18.90
2019-01-25T13:57:58.674Z,18.90
2019-01-25T14:00:29.946Z,18.90
2019-01-25T14:02:59.172Z,18.80
2019-01-25T14:05:28.366Z,18.90
2019-01-25T14:07:57.587Z,18.80
2019-01-25T14:10:28.784Z,18.80
2019-01-25T14:12:57.954Z,18.80
2019-01-25T14:15:27.581Z,18.80
2019-01-25T14:17:56.794Z,18.80
2019-01-25T14:20:27.735Z,18.80
2019-01-25T14:22:56.965Z,18.80
2019-01-25T14:25:26.133Z,18.70
2019-01-25T14:27:55.325Z,18.80
2019-01-25T14:30:27.173Z,18.70
2019-01-25T14:32:56.371Z,18.80
2019-01-25T14:35:25.886Z,18.70
2019-01-25T14:37:55.125Z,18.70
2019-01-25T14:40:24.364Z,18.80
2019-01-25T14:42:53.924Z,18.70
2019-01-25T14:45:23.150Z,18.80
2019-01-25T14:47:52.399Z,18.80
2019-01-25T14:50:22.658Z,18.80
2019-01-25T14:52:51.842Z,18.90
2019-01-25T14:55:21.005Z,18.90
2019-01-25T14:57:50.224Z,18.90
2019-01-25T15:00:19.355Z,19.00
2019-01-25T15:02:48.618Z,19.00
2019-01-25T15:05:18.674Z,19.00
2019-01-25T15:07:47.850Z,19.00
2019-01-25T15:10:22.212Z,19.10
2019-01-25T15:12:52.024Z,19.10
2019-01-25T15:15:21.236Z,19.10
2019-01-25T15:17:50.530Z,19.10
2019-01-25T15:20:21.554Z,19.10
2019-01-25T15:22:50.845Z,19.00
2019-01-25T15:25:20.050Z,19.00
2019-01-25T15:27:49.282Z,19.00
2019-01-25T15:30:20.642Z,19.00
2019-01-25T15:32:49.816Z,19.00
2019-01-25T15:35:20.169Z,18.90
2019-01-25T15:37:49.394Z,18.90
2019-01-25T15:40:18.947Z,18.90
2019-01-25T15:42:48.148Z,18.90
2019-01-25T15:45:17.726Z,18.90
2019-01-25T15:47:47.025Z,18.80
2019-01-25T15:50:21.124Z,18.80
2019-01-25T15:52:50.291Z,18.80
2019-01-25T15:55:19.804Z,18.80
2019-01-25T15:57:49.026Z,18.80
2019-01-25T16:00:20.211Z,18.80
2019-01-25T16:02:49.435Z,18.80
2019-01-25T16:05:19.858Z,18.80
2019-01-25T16:07:49.910Z,18.80
2019-01-25T16:10:20.507Z,18.80
2019-01-25T16:12:49.753Z,18.90
2019-01-25T16:15:24.224Z,18.90
2019-01-25T16:17:53.497Z,18.90
2019-01-25T16:20:22.649Z,19.00
2019-01-25T16:22:51.919Z,19.00
2019-01-25T16:25:23.962Z,19.00
2019-01-25T16:27:53.153Z,19.10
2019-01-25T16:30:27.409Z,19.10
2019-01-25T16:32:56.601Z,19.10
2019-01-25T16:35:25.869Z,19.10
2019-01-25T16:37:55.128Z,19.10
2019-01-25T16:40:24.978Z,19.10
2019-01-25T16:42:54.579Z,19.10
2019-01-25T16:45:29.199Z,19.10
2019-01-25T16:47:58.442Z,19.10
2019-01-25T16:50:27.625Z,19.10
2019-01-25T16:52:56.773Z,19.10
2019-01-25T16:55:25.942Z,19.10
2019-01-25T16:57:55.137Z,19.00
2019-01-25T17:00:26.953Z,19.00
2019-01-25T17:02:56.201Z,19.00
2019-01-25T17:05:25.433Z,18.90
2019-01-25T17:07:54.650Z,18.90
2019-01-25T17:10:23.905Z,18.90
2019-01-25T17:12:53.118Z,18.90
2019-01-25T17:15:22.268Z,18.90
2019-01-25T17:17:51.486Z,18.90
2019-01-25T17:20:21.653Z,18.80
2019-01-25T17:22:51.090Z,18.80
2019-01-25T17:25:20.575Z,18.80
2019-01-25T17:27:49.742Z,18.80
2019-01-25T17:30:26.784Z,18.80
2019-01-25T17:32:56.871Z,18.80
2019-01-25T17:35:26.163Z,18.80
2019-01-25T17:37:55.365Z,18.70
2019-01-25T17:40:27.283Z,18.70
2019-01-25T17:42:56.857Z,18.80
2019-01-25T17:45:26.082Z,18.80
2019-01-25T17:47:55.322Z,18.80
2019-01-25T17:50:24.640Z,18.80
2019-01-25T17:52:53.890Z,18.90
2019-01-25T17:55:23.025Z,18.90
2019-01-25T17:57:52.245Z,18.90
2019-01-25T18:00:37.086Z,18.90
2019-01-25T18:03:06.304Z,18.90
2019-01-25T18:05:35.540Z,18.90
2019-01-25T18:08:04.816Z,18.90
2019-01-25T18:10:34.034Z,19.00
2019-01-25T18:13:03.298Z,19.00
2019-01-25T18:15:32.570Z,19.00
2019-01-25T18:18:01.773Z,19.00
2019-01-25T18:20:30.946Z,19.00
2019-01-25T18:23:00.190Z,19.10
2019-01-25T18:25:42.073Z,19.00
2019-01-25T18:28:14.089Z,19.00
2019-01-25T18:30:49.629Z,19.00
2019-01-25T18:33:18.817Z,19.10
2019-01-25T18:35:47.976Z,19.10
2019-01-25T18:38:17.456Z,19.00
2019-01-25T18:40:46.646Z,19.10
2019-01-25T18:43:15.831Z,19.10
2019-01-25T18:45:46.054Z,19.00
2019-01-25T18:48:15.249Z,19.00
2019-01-25T18:50:44.440Z,19.00
2019-01-25T18:53:14.067Z,19.00
2019-01-25T18:55:43.289Z,19.00
2019-01-25T18:58:12.505Z,19.00
2019-01-25T19:00:41.685Z,19.00
2019-01-25T19:03:10.849Z,19.00
2019-01-25T19:05:40.078Z,18.90
2019-01-25T19:08:10.868Z,18.90
2019-01-25T19:10:40.910Z,18.90
2019-01-25T19:13:10.074Z,18.90
2019-01-25T19:15:39.438Z,18.90
2019-01-25T19:18:11.120Z,18.90
2019-01-25T19:20:40.463Z,18.90
2019-01-25T19:23:10.050Z,18.90
2019-01-25T19:25:39.282Z,19.00
2019-01-25T19:28:08.382Z,19.00
2019-01-25T19:30:39.650Z,19.00
2019-01-25T19:33:08.873Z,19.00
2019-01-25T19:35:38.165Z,19.00
2019-01-25T19:38:08.550Z,19.10
2019-01-25T19:40:37.764Z,19.10
2019-01-25T19:43:07.014Z,19.10
2019-01-25T19:45:36.365Z,19.20
2019-01-25T19:48:05.657Z,19.20
2019-01-25T19:50:34.889Z,19.20
2019-01-25T19:53:04.067Z,19.30
2019-01-25T19:55:33.328Z,19.30
2019-01-25T19:58:02.847Z,19.30
2019-01-25T20:00:34.895Z,19.30
2019-01-25T20:03:04.357Z,19.30
2019-01-25T20:05:33.573Z,19.30
2019-01-25T20:08:02.732Z,19.30
2019-01-25T20:10:32.830Z,19.20
2019-01-25T20:13:02.093Z,19.20
2019-01-25T20:15:31.655Z,19.10
2019-01-25T20:18:00.862Z,19.10
2019-01-25T20:20:31.855Z,19.00
2019-01-25T20:23:01.537Z,18.90
2019-01-25T20:25:30.768Z,18.90
2019-01-25T20:27:59.990Z,18.90
2019-01-25T20:30:31.450Z,18.80
2019-01-25T20:33:01.861Z,18.80
2019-01-25T20:35:33.206Z,18.80
2019-01-25T20:38:02.464Z,18.70
2019-01-25T20:40:31.679Z,18.70
2019-01-25T20:43:01.052Z,18.70
2019-01-25T20:45:33.815Z,18.70
2019-01-25T20:48:03.054Z,18.70
2019-01-25T20:50:33.265Z,18.70
2019-01-25T20:53:02.506Z,18.70
2019-01-25T20:55:32.141Z,18.70
2019-01-25T20:58:02.471Z,18.80
2019-01-25T21:00:33.669Z,18.80
2019-01-25T21:03:04.207Z,18.80
2019-01-25T21:05:33.425Z,18.80
2019-01-25T21:08:02.629Z,18.80
2019-01-25T21:10:31.849Z,18.80
2019-01-25T21:13:01.086Z,18.80
2019-01-25T21:15:35.105Z,18.80
2019-01-25T21:18:01.146Z,18.90
2019-01-25T21:20:32.829Z,18.90
2019-01-25T21:23:02.153Z,18.90
2019-01-25T21:25:31.382Z,18.90
2019-01-25T21:28:00.528Z,18.90
2019-01-25T21:30:31.225Z,18.90
2019-01-25T21:33:00.855Z,18.90
2019-01-25T21:35:30.073Z,18.90
2019-01-25T21:37:59.329Z,18.90
2019-01-25T21:40:29.964Z,18.90
2019-01-25T21:42:59.496Z,18.90
2019-01-25T21:45:30.490Z,18.90
2019-01-25T21:47:59.819Z,18.80
2019-01-25T21:50:31.621Z,18.80
2019-01-25T21:53:00.812Z,18.80
2019-01-25T21:55:30.045Z,18.80
2019-01-25T21:58:05.496Z,18.80
2019-01-25T22:00:31.419Z,18.80
2019-01-25T22:03:00.650Z,18.80
2019-01-25T22:05:29.857Z,18.80
2019-01-25T22:07:59.087Z,18.80
2019-01-25T22:10:30.898Z,18.70
2019-01-25T22:13:00.092Z,18.70
2019-01-25T22:15:29.366Z,18.70
2019-01-25T22:17:58.603Z,18.80
2019-01-25T22:20:28.827Z,18.70
2019-01-25T22:22:58.451Z,18.70
2019-01-25T22:25:28.095Z,18.70
2019-01-25T22:27:58.580Z,18.70
2019-01-25T22:30:28.369Z,18.70
2019-01-25T22:32:57.614Z,18.70
2019-01-25T22:35:27.370Z,18.70
2019-01-25T22:37:56.618Z,18.70
2019-01-25T22:40:27.829Z,18.70
2019-01-25T22:42:57.153Z,18.70
2019-01-25T22:45:29.730Z,18.70
2019-01-25T22:48:01.323Z,18.70
2019-01-25T22:50:32.688Z,18.60
2019-01-25T22:53:02.165Z,18.70
2019-01-25T22:55:31.354Z,18.60
2019-01-25T22:58:00.546Z,18.60
2019-01-25T23:00:54.850Z,18.60
2019-01-25T23:03:33.702Z,18.60
2019-01-25T23:06:44.641Z,18.60
2019-01-25T23:09:37.554Z,18.60
2019-01-25T23:12:06.753Z,18.60
2019-01-25T23:14:36.394Z,18.50
2019-01-25T23:17:05.557Z,18.50
2019-01-25T23:19:34.697Z,18.50
2019-01-25T23:22:07.171Z,18.50
2019-01-25T23:24:36.617Z,18.40
2019-01-25T23:27:08.032Z,18.40
2019-01-25T23:29:38.878Z,18.40
2019-01-25T23:32:08.783Z,18.40
2019-01-25T23:34:41.385Z,18.40
2019-01-25T23:37:10.906Z,18.40
2019-01-25T23:39:42.337Z,18.30
2019-01-25T23:42:12.527Z,18.30
2019-01-25T23:44:41.746Z,18.30
2019-01-25T23:47:11.413Z,18.30
2019-01-25T23:49:40.656Z,18.30
2019-01-25T23:52:10.219Z,18.30
2019-01-25T23:54:41.541Z,18.20
2019-01-25T23:57:11.398Z,18.20
2019-01-25T23:59:41.069Z,18.20
